createdAt,value
2019-05-09T00:01:57.108Z,12.40
2019-05-09T00:07:03.451Z,12.50
2019-05-09T00:12:08.723Z,12.40
2019-05-09T00:17:14.219Z,12.40
2019-05-09T00:22:18.984Z,12.30
2019-05-09T00:27:23.952Z,12.30
2019-05-09T00:32:39.344Z,12.20
2019-05-09T00:37:54.616Z,12.20
2019-05-09T00:42:58.986Z,12.20
2019-05-09T00:48:04.081Z,12.10
2019-05-09T00:53:08.728Z,12.10
2019-05-09T00:58:13.668Z,12.20
2019-05-09T01:03:18.078Z,12.20
2019-05-09T01:08:24.273Z,12.20
2019-05-09T01:13:28.878Z,12.30
2019-05-09T01:18:33.254Z,12.20
2019-05-09T01:23:37.604Z,12.20
2019-05-09T01:28:44.084Z,12.20
2019-05-09T01:34:18.995Z,12.20
2019-05-09T01:39:24.221Z,12.20
2019-05-09T01:44:29.169Z,12.20
2019-05-09T01:49:34.320Z,12.20
2019-05-09T01:54:40.461Z,12.20
2019-05-09T01:59:45.899Z,12.20
2019-05-09T02:04:50.488Z,12.20
2019-05-09T02:09:54.839Z,12.20
2019-05-09T02:15:08.576Z,12.20
2019-05-09T02:20:13.706Z,12.20
2019-05-09T02:25:18.601Z,12.20
2019-05-09T02:30:25.371Z,12.10
2019-05-09T02:35:33.164Z,12.10
2019-05-09T02:40:35.380Z,12.10
2019-05-09T02:45:52.771Z,12.00
2019-05-09T02:50:55.621Z,11.90
2019-05-09T02:56:00.086Z,11.90
2019-05-09T03:01:23.958Z,11.80
2019-05-09T03:06:28.548Z,11.70
2019-05-09T03:11:33.167Z,11.70
2019-05-09T03:16:39.698Z,11.60
2019-05-09T03:21:51.246Z,11.50
2019-05-09T03:27:00.152Z,11.50
2019-05-09T03:32:04.479Z,11.50
2019-05-09T03:37:08.862Z,11.40
2019-05-09T03:42:13.213Z,11.40
2019-05-09T03:47:23.403Z,11.40
2019-05-09T03:52:27.997Z,11.40
2019-05-09T03:57:36.809Z,11.40
2019-05-09T04:02:41.138Z,11.40
2019-05-09T04:07:47.657Z,11.40
2019-05-09T04:12:55.771Z,11.30
2019-05-09T04:17:57.993Z,11.20
2019-05-09T04:23:02.474Z,11.10
2019-05-09T04:28:07.444Z,11.10
2019-05-09T04:33:11.994Z,11.10
2019-05-09T04:38:17.932Z,11.00
2019-05-09T04:43:32.240Z,11.00
2019-05-09T04:48:34.039Z,10.90
2019-05-09T04:53:40.129Z,10.90
2019-05-09T04:58:44.563Z,11.00
2019-05-09T05:03:50.515Z,11.10
2019-05-09T05:08:54.880Z,11.10
2019-05-09T05:14:02.963Z,11.10
2019-05-09T05:19:07.571Z,11.10
2019-05-09T05:24:20.412Z,11.20
2019-05-09T05:29:24.796Z,11.30
2019-05-09T05:34:37.847Z,11.40
2019-05-09T05:39:42.239Z,11.40
2019-05-09T05:44:47.613Z,11.60
2019-05-09T05:49:52.096Z,11.70
2019-05-09T05:54:58.186Z,11.80
2019-05-09T06:00:02.552Z,11.90
2019-05-09T06:05:08.469Z,12.00
2019-05-09T06:10:13.571Z,12.00
2019-05-09T06:15:18.392Z,12.10
2019-05-09T06:20:23.123Z,12.10
2019-05-09T06:25:30.367Z,12.10
2019-05-09T06:30:33.730Z,12.10
2019-05-09T06:35:38.406Z,12.10
2019-05-09T06:40:42.763Z,12.10
2019-05-09T06:46:18.332Z,12.20
2019-05-09T06:51:22.954Z,12.30
2019-05-09T06:56:28.294Z,12.30
2019-05-09T07:01:57.812Z,12.30
2019-05-09T07:07:07.975Z,12.40
2019-05-09T07:12:12.827Z,12.60
2019-05-09T07:17:18.306Z,12.80
2019-05-09T07:22:44.856Z,12.90
2019-05-09T07:27:49.499Z,13.00
2019-05-09T07:33:00.280Z,13.10
2019-05-09T07:38:04.627Z,13.10
2019-05-09T07:43:08.977Z,13.20
2019-05-09T07:48:13.382Z,13.40
2019-05-09T07:53:17.801Z,13.50
2019-05-09T07:58:22.273Z,13.80
2019-05-09T08:03:27.592Z,13.90
2019-05-09T08:08:32.154Z,14.10
2019-05-09T08:13:38.607Z,14.10
2019-05-09T08:18:42.645Z,14.20
2019-05-09T08:23:48.555Z,14.20
2019-05-09T08:28:53.101Z,14.20
2019-05-09T08:33:59.399Z,14.10
2019-05-09T08:39:08.101Z,14.30
2019-05-09T08:44:12.234Z,14.30
2019-05-09T08:49:18.236Z,14.50
2019-05-09T08:54:42.816Z,14.70
2019-05-09T08:59:50.539Z,15.00
2019-05-09T09:04:53.366Z,15.10
2019-05-09T09:09:57.888Z,15.30
2019-05-09T09:15:02.367Z,15.30
2019-05-09T09:20:07.799Z,15.30
2019-05-09T09:25:12.405Z,15.40
2019-05-09T09:30:24.174Z,15.50
2019-05-09T09:35:23.127Z,15.60
2019-05-09T09:40:28.037Z,15.80
2019-05-09T09:45:32.571Z,15.90
2019-05-09T09:50:38.301Z,15.80
2019-05-09T09:55:42.908Z,15.90
2019-05-09T10:01:05.782Z,15.90
2019-05-09T10:06:10.217Z,16.20
2019-05-09T10:11:14.647Z,16.30
2019-05-09T10:16:32.766Z,16.40
2019-05-09T10:21:44.254Z,16.50
2019-05-09T10:27:09.079Z,16.50
2019-05-09T10:32:14.622Z,16.90
2019-05-09T10:37:19.034Z,16.80
2019-05-09T10:42:33.542Z,16.80
2019-05-09T10:47:37.957Z,16.80
2019-05-09T10:52:42.325Z,16.80
2019-05-09T10:57:52.081Z,16.90
2019-05-09T11:02:53.916Z,17.10
2019-05-09T11:07:58.969Z,17.10
2019-05-09T11:13:03.431Z,17.20
2019-05-09T11:18:08.249Z,17.30
2019-05-09T11:23:12.831Z,17.50
2019-05-09T11:28:17.917Z,17.70
2019-05-09T11:33:22.490Z,17.80
2019-05-09T11:38:33.507Z,17.70
2019-05-09T11:43:33.060Z,17.60
2019-05-09T11:48:38.140Z,17.60
2019-05-09T11:53:42.652Z,18.00
2019-05-09T11:58:48.144Z,18.50
2019-05-09T12:03:52.827Z,18.80
2019-05-09T12:08:58.780Z,18.40
2019-05-09T12:14:03.295Z,18.10
2019-05-09T12:19:07.779Z,17.90
2019-05-09T12:24:12.167Z,17.60
2019-05-09T12:29:19.288Z,17.50
2019-05-09T12:34:22.700Z,17.50
2019-05-09T12:39:27.558Z,17.70
2019-05-09T12:44:32.016Z,18.00
2019-05-09T12:49:38.594Z,18.20
2019-05-09T12:54:42.610Z,18.30
2019-05-09T12:59:52.486Z,18.20
2019-05-09T13:04:53.092Z,18.10
2019-05-09T13:09:58.235Z,18.10
2019-05-09T13:15:02.797Z,18.10
2019-05-09T13:20:09.463Z,18.10
2019-05-09T13:25:13.898Z,18.10
2019-05-09T13:30:19.408Z,18.10
2019-05-09T13:35:24.203Z,18.00
2019-05-09T13:40:29.163Z,18.00
2019-05-09T13:45:33.604Z,18.00
2019-05-09T13:50:38.199Z,17.90
2019-05-09T13:55:42.642Z,18.00
2019-05-09T14:00:58.459Z,17.80
2019-05-09T14:05:53.245Z,17.70
2019-05-09T14:10:58.432Z,17.40
2019-05-09T14:16:15.822Z,17.10
2019-05-09T14:21:09.049Z,17.00
2019-05-09T14:26:13.471Z,17.00
2019-05-09T14:31:18.710Z,16.80
2019-05-09T14:36:23.430Z,16.70
2019-05-09T14:41:27.955Z,16.80
2019-05-09T14:46:32.471Z,16.90
2019-05-09T14:51:38.028Z,17.10
2019-05-09T14:56:42.856Z,17.20
2019-05-09T15:01:49.564Z,17.30
2019-05-09T15:06:53.360Z,17.40
2019-05-09T15:11:58.448Z,17.60
2019-05-09T15:17:03.055Z,17.70
2019-05-09T15:22:08.196Z,17.80
2019-05-09T15:27:12.975Z,17.90
2019-05-09T15:32:18.305Z,18.00
2019-05-09T15:37:22.879Z,18.00
2019-05-09T15:42:27.236Z,18.00
2019-05-09T15:47:34.400Z,18.00
2019-05-09T15:52:38.761Z,18.00
2019-05-09T15:57:43.184Z,18.00
2019-05-09T16:02:48.596Z,18.00
2019-05-09T16:07:53.469Z,18.00
2019-05-09T16:12:57.797Z,17.90
2019-05-09T16:18:05.051Z,17.80
2019-05-09T16:23:10.094Z,17.90
2019-05-09T16:28:15.056Z,17.90
2019-05-09T16:33:19.496Z,17.90
2019-05-09T16:38:23.914Z,17.90
2019-05-09T16:43:28.348Z,17.80
2019-05-09T16:48:32.791Z,17.80
2019-05-09T16:53:37.169Z,18.00
2019-05-09T16:58:41.531Z,18.10
2019-05-09T17:03:47.269Z,18.10
2019-05-09T17:08:51.657Z,18.00
2019-05-09T17:13:58.176Z,18.00
2019-05-09T17:19:02.171Z,18.10
2019-05-09T17:24:08.934Z,18.10
2019-05-09T17:29:13.325Z,18.00
2019-05-09T17:34:18.145Z,17.90
2019-05-09T17:39:22.807Z,17.90
2019-05-09T17:44:28.149Z,17.80
2019-05-09T17:49:32.779Z,17.80
2019-05-09T17:54:37.940Z,17.90
2019-05-09T17:59:42.572Z,17.80
2019-05-09T18:04:48.022Z,17.80
2019-05-09T18:09:52.621Z,17.80
2019-05-09T18:14:56.982Z,17.80
2019-05-09T18:20:01.377Z,17.70
2019-05-09T18:25:08.347Z,17.60
2019-05-09T18:30:13.568Z,17.60
2019-05-09T18:35:20.268Z,17.60
2019-05-09T18:40:24.702Z,17.60
2019-05-09T18:45:31.685Z,17.50
2019-05-09T18:50:36.268Z,17.40
2019-05-09T18:55:40.877Z,17.30
2019-05-09T19:00:45.308Z,17.20
2019-05-09T19:05:49.774Z,17.00
2019-05-09T19:10:54.216Z,17.00
2019-05-09T19:16:08.979Z,16.90
2019-05-09T19:21:17.630Z,16.80
2019-05-09T19:26:37.271Z,16.70
2019-05-09T19:31:41.747Z,16.60
2019-05-09T19:36:46.159Z,16.60
2019-05-09T19:41:50.513Z,16.50
2019-05-09T19:46:54.942Z,16.30
2019-05-09T19:51:59.415Z,16.20
2019-05-09T19:57:03.887Z,16.20
2019-05-09T20:02:08.394Z,16.10
2019-05-09T20:07:12.824Z,16.00
2019-05-09T20:12:32.772Z,16.00
2019-05-09T20:17:37.227Z,15.90
2019-05-09T20:22:52.406Z,15.80
2019-05-09T20:27:48.250Z,15.50
2019-05-09T20:32:52.836Z,15.20
2019-05-09T20:37:57.589Z,14.90
2019-05-09T20:43:02.280Z,14.70
2019-05-09T20:48:07.205Z,14.70
2019-05-09T20:53:12.057Z,14.70
2019-05-09T20:58:16.655Z,14.80
2019-05-09T21:03:21.206Z,14.80
2019-05-09T21:08:25.860Z,14.90
2019-05-09T21:13:30.407Z,14.90
2019-05-09T21:18:36.165Z,14.90
2019-05-09T21:23:40.809Z,14.80
2019-05-09T21:28:45.449Z,14.60
2019-05-09T21:33:50.293Z,14.60
2019-05-09T21:38:54.660Z,14.60
2019-05-09T21:43:59.337Z,14.60
2019-05-09T21:49:03.802Z,14.50
2019-05-09T21:54:08.289Z,14.50
2019-05-09T21:59:12.662Z,14.50
2019-05-09T22:04:17.259Z,14.60
2019-05-09T22:09:21.819Z,14.60
2019-05-09T22:14:26.409Z,14.70
2019-05-09T22:19:30.949Z,14.70
2019-05-09T22:24:35.334Z,14.60
2019-05-09T22:29:39.756Z,14.50
2019-05-09T22:34:44.134Z,14.50
2019-05-09T22:39:48.535Z,14.50
2019-05-09T22:44:53.018Z,14.50
2019-05-09T22:49:57.407Z,14.50
2019-05-09T22:55:01.991Z,14.60
2019-05-09T23:00:07.384Z,14.40
2019-05-09T23:05:11.830Z,14.30
2019-05-09T23:10:16.203Z,14.20
2019-05-09T23:15:20.569Z,14.00
2019-05-09T23:20:42.468Z,14.00
2019-05-09T23:25:46.947Z,14.00
2019-05-09T23:30:53.127Z,14.10
2019-05-09T23:35:57.579Z,14.00
2019-05-09T23:41:02.509Z,14.00
2019-05-09T23:46:06.886Z,14.00
2019-05-09T23:51:11.484Z,14.10
2019-05-09T23:56:34.871Z,14.10
